createdAt,value
2022-08-26T00:02:01.533Z,100538.14
2022-08-26T00:04:31.506Z,100546.18
2022-08-26T00:07:00.360Z,100549.78
2022-08-26T00:09:29.117Z,100550.86
2022-08-26T00:11:57.578Z,100544.82
2022-08-26T00:14:31.033Z,100544.05
2022-08-26T00:17:00.194Z,100537.97
2022-08-26T00:19:28.804Z,100540.66
2022-08-26T00:21:57.383Z,100547.92
2022-08-26T00:24:25.993Z,100542.84
2022-08-26T00:26:54.445Z,100544.75
2022-08-26T00:29:23.059Z,100547.44
2022-08-26T00:31:51.837Z,100540.44
2022-08-26T00:34:20.516Z,100534.31
2022-08-26T00:36:52.053Z,100533.51
2022-08-26T00:39:21.187Z,100534.62
2022-08-26T00:41:49.969Z,100539.28
2022-08-26T00:44:19.297Z,100537.83
2022-08-26T00:46:52.872Z,100537.13
2022-08-26T00:49:31.009Z,100543.40
2022-08-26T00:52:03.889Z,100547.88
2022-08-26T00:54:44.645Z,100548.86
2022-08-26T00:57:16.760Z,100551.57
2022-08-26T00:59:47.664Z,100541.98
2022-08-26T01:02:20.967Z,100544.76
2022-08-26T01:04:55.639Z,100551.86
2022-08-26T01:07:26.179Z,100544.06
2022-08-26T01:09:57.546Z,100551.28
2022-08-26T01:12:31.778Z,100549.73
2022-08-26T01:15:01.580Z,100547.28
2022-08-26T01:17:30.259Z,100542.99
2022-08-26T01:20:09.969Z,100547.45
2022-08-26T01:22:49.817Z,100544.89
2022-08-26T01:25:23.472Z,100543.17
2022-08-26T01:27:55.041Z,100543.17
2022-08-26T01:30:27.763Z,100545.84
2022-08-26T01:32:58.075Z,100542.30
2022-08-26T01:35:27.545Z,100542.30
2022-08-26T01:37:56.837Z,100542.25
2022-08-26T01:40:32.101Z,100543.98
2022-08-26T01:43:02.857Z,100548.33
2022-08-26T01:45:34.273Z,100546.61
2022-08-26T01:48:11.030Z,100551.08
2022-08-26T01:50:40.119Z,100550.23
2022-08-26T01:53:12.081Z,100547.74
2022-08-26T01:55:45.748Z,100543.49
2022-08-26T01:58:20.517Z,100548.02
2022-08-26T02:00:50.423Z,100541.14
2022-08-26T02:03:21.792Z,100541.20
2022-08-26T02:05:53.908Z,100543.95
2022-08-26T02:08:27.853Z,100546.65
2022-08-26T02:10:56.610Z,100546.75
2022-08-26T02:13:30.767Z,100545.10
2022-08-26T02:16:01.598Z,100546.19
2022-08-26T02:18:34.493Z,100544.56
2022-08-26T02:21:06.615Z,100550.75
2022-08-26T02:23:35.572Z,100549.02
2022-08-26T02:26:09.461Z,100542.91
2022-08-26T02:28:40.288Z,100550.00
2022-08-26T02:31:08.906Z,100545.75
2022-08-26T02:33:38.581Z,100555.44
2022-08-26T02:36:13.487Z,100552.80
2022-08-26T02:38:44.465Z,100552.84
2022-08-26T02:41:15.091Z,100550.27
2022-08-26T02:43:43.881Z,100543.34
2022-08-26T02:46:12.608Z,100541.69
2022-08-26T02:48:50.633Z,100542.60
2022-08-26T02:51:19.068Z,100542.77
2022-08-26T02:53:47.532Z,100547.26
2022-08-26T02:56:15.988Z,100547.32
2022-08-26T02:58:44.568Z,100546.61
2022-08-26T03:01:22.759Z,100542.41
2022-08-26T03:03:51.713Z,100541.80
2022-08-26T03:06:20.810Z,100542.73
2022-08-26T03:08:49.565Z,100535.81
2022-08-26T03:11:19.095Z,100529.73
2022-08-26T03:13:47.686Z,100529.73
2022-08-26T03:16:16.902Z,100531.56
2022-08-26T03:18:47.015Z,100534.34
2022-08-26T03:21:21.148Z,100531.94
2022-08-26T03:23:49.709Z,100534.73
2022-08-26T03:26:18.905Z,100529.47
2022-08-26T03:29:05.943Z,100530.34
2022-08-26T03:31:35.532Z,100533.88
2022-08-26T03:34:04.105Z,100539.99
2022-08-26T03:36:33.164Z,100529.47
2022-08-26T03:39:04.413Z,100529.46
2022-08-26T03:41:36.075Z,100524.27
2022-08-26T03:44:06.366Z,100528.63
2022-08-26T03:46:35.464Z,100525.08
2022-08-26T03:49:05.445Z,100519.78
2022-08-26T03:51:35.844Z,100524.11
2022-08-26T03:54:09.131Z,100523.23
2022-08-26T03:56:37.964Z,100517.19
2022-08-26T03:59:08.555Z,100517.28
2022-08-26T04:01:37.305Z,100516.47
2022-08-26T04:04:06.955Z,100523.58
2022-08-26T04:06:38.305Z,100516.52
2022-08-26T04:09:09.385Z,100518.31
2022-08-26T04:11:39.682Z,100517.38
2022-08-26T04:14:12.893Z,100518.19
2022-08-26T04:16:43.284Z,100522.54
2022-08-26T04:19:13.852Z,100519.06
2022-08-26T04:21:43.148Z,100519.00
2022-08-26T04:24:14.612Z,100516.31
2022-08-26T04:26:43.993Z,100515.34
2022-08-26T04:29:16.724Z,100521.34
2022-08-26T04:31:46.416Z,100520.28
2022-08-26T04:34:16.998Z,100518.30
2022-08-26T04:36:45.706Z,100522.49
2022-08-26T04:39:16.355Z,100521.42
2022-08-26T04:41:46.114Z,100511.53
2022-08-26T04:44:15.930Z,100514.81
2022-08-26T04:46:46.051Z,100512.01
2022-08-26T04:49:14.542Z,100514.48
2022-08-26T04:51:43.920Z,100510.76
2022-08-26T04:54:13.644Z,100518.45
2022-08-26T04:56:49.105Z,100523.42
2022-08-26T04:59:18.206Z,100523.11
2022-08-26T05:01:49.463Z,100523.60
2022-08-26T05:04:20.157Z,100524.13
2022-08-26T05:06:49.426Z,100523.03
2022-08-26T05:09:18.681Z,100521.83
2022-08-26T05:11:48.520Z,100523.15
2022-08-26T05:14:22.768Z,100519.77
2022-08-26T05:16:52.018Z,100522.65
2022-08-26T05:19:21.087Z,100518.41
2022-08-26T05:21:50.215Z,100514.20
2022-08-26T05:24:18.809Z,100528.98
2022-08-26T05:26:48.127Z,100521.31
2022-08-26T05:29:16.937Z,100512.03
2022-08-26T05:31:45.490Z,100512.30
2022-08-26T05:34:14.221Z,100519.28
2022-08-26T05:36:43.014Z,100524.32
2022-08-26T05:39:12.022Z,100521.57
2022-08-26T05:41:44.860Z,100520.48
2022-08-26T05:44:15.733Z,100526.34
2022-08-26T05:46:45.644Z,100518.67
2022-08-26T05:49:15.387Z,100519.98
2022-08-26T05:51:46.024Z,100523.81
2022-08-26T05:54:21.993Z,100522.28
2022-08-26T05:56:51.790Z,100529.50
2022-08-26T05:59:24.192Z,100524.00
2022-08-26T06:01:54.417Z,100516.97
2022-08-26T06:04:27.076Z,100526.00
2022-08-26T06:06:58.543Z,100522.57
2022-08-26T06:09:27.159Z,100523.52
2022-08-26T06:11:58.272Z,100518.97
2022-08-26T06:14:26.734Z,100516.13
2022-08-26T06:16:55.190Z,100513.17
2022-08-26T06:19:23.836Z,100516.38
2022-08-26T06:21:54.926Z,100516.85
2022-08-26T06:24:50.985Z,100512.95
2022-08-26T06:27:19.946Z,100526.53
2022-08-26T06:29:48.712Z,100521.48
2022-08-26T06:32:17.272Z,100518.98
2022-08-26T06:34:45.767Z,100518.11
2022-08-26T06:37:14.655Z,100522.64
2022-08-26T06:39:44.140Z,100524.69
2022-08-26T06:42:12.945Z,100525.78
2022-08-26T06:44:44.739Z,100519.72
2022-08-26T06:47:13.582Z,100524.34
2022-08-26T06:49:42.429Z,100520.96
2022-08-26T06:52:12.753Z,100517.69
2022-08-26T06:54:42.674Z,100517.89
2022-08-26T06:57:12.713Z,100518.23
2022-08-26T06:59:45.739Z,100516.63
2022-08-26T07:02:14.610Z,100526.74
2022-08-26T07:04:43.866Z,100515.45
2022-08-26T07:07:16.368Z,100518.22
2022-08-26T07:09:45.399Z,100515.66
2022-08-26T07:12:13.824Z,100520.97
2022-08-26T07:14:47.557Z,100518.37
2022-08-26T07:17:17.273Z,100511.73
2022-08-26T07:19:49.022Z,100511.80
2022-08-26T07:22:18.256Z,100513.36
2022-08-26T07:24:46.718Z,100505.39
2022-08-26T07:27:17.162Z,100509.99
2022-08-26T07:29:45.868Z,100512.80
2022-08-26T07:32:16.558Z,100512.54
2022-08-26T07:34:45.626Z,100507.19
2022-08-26T07:37:14.744Z,100509.03
2022-08-26T07:39:44.630Z,100508.06
2022-08-26T07:42:18.476Z,100506.88
2022-08-26T07:44:47.636Z,100502.63
2022-08-26T07:47:25.780Z,100503.39
2022-08-26T07:49:57.229Z,100503.06
2022-08-26T07:52:28.149Z,100498.63
2022-08-26T07:54:58.302Z,100496.94
2022-08-26T07:57:28.323Z,100492.28
2022-08-26T07:59:57.719Z,100491.95
2022-08-26T08:02:28.213Z,100482.55
2022-08-26T08:04:57.774Z,100486.52
2022-08-26T08:07:44.222Z,100484.89
2022-08-26T08:10:16.894Z,100489.12
2022-08-26T08:12:45.419Z,100489.55
2022-08-26T08:15:15.337Z,100495.83
2022-08-26T08:17:44.178Z,100494.80
2022-08-26T08:20:14.433Z,100487.98
2022-08-26T08:22:43.608Z,100487.40
2022-08-26T08:25:13.339Z,100489.16
2022-08-26T08:27:44.497Z,100485.93
2022-08-26T08:30:15.521Z,100477.63
2022-08-26T08:32:51.406Z,100474.10
2022-08-26T08:35:22.239Z,100477.51
2022-08-26T08:37:53.711Z,100472.88
2022-08-26T08:40:25.669Z,100475.00
2022-08-26T08:42:59.364Z,100471.70
2022-08-26T08:45:36.566Z,100467.92
2022-08-26T08:48:15.932Z,100465.89
2022-08-26T08:50:48.823Z,100465.70
2022-08-26T08:53:22.602Z,100464.09
2022-08-26T08:56:04.263Z,100460.56
2022-08-26T08:58:50.867Z,100466.45
2022-08-26T09:01:29.942Z,100462.41
2022-08-26T09:04:18.129Z,100469.11
2022-08-26T09:06:49.601Z,100463.92
2022-08-26T09:09:23.718Z,100462.93
2022-08-26T09:11:52.868Z,100462.95
2022-08-26T09:14:22.210Z,100460.55
2022-08-26T09:17:00.629Z,100463.22
2022-08-26T09:19:37.573Z,100461.98
2022-08-26T09:22:09.407Z,100457.08
2022-08-26T09:24:42.134Z,100455.85
2022-08-26T09:27:37.771Z,100451.39
2022-08-26T09:30:11.462Z,100449.41
2022-08-26T09:32:41.647Z,100449.22
2022-08-26T09:35:24.360Z,100446.84
2022-08-26T09:37:52.999Z,100446.38
2022-08-26T09:40:28.579Z,100442.90
2022-08-26T09:43:09.921Z,100445.90
2022-08-26T09:45:40.796Z,100441.88
2022-08-26T09:48:29.722Z,100445.83
2022-08-26T09:51:01.322Z,100442.64
2022-08-26T09:53:31.901Z,100446.08
2022-08-26T09:56:25.172Z,100436.30
2022-08-26T09:58:54.637Z,100430.74
2022-08-26T10:01:34.325Z,100429.58
2022-08-26T10:04:09.970Z,100436.70
2022-08-26T10:06:43.427Z,100440.59
2022-08-26T10:09:17.185Z,100435.54
2022-08-26T10:11:51.703Z,100431.49
2022-08-26T10:14:26.239Z,100434.05
2022-08-26T10:17:02.813Z,100441.98
2022-08-26T10:19:55.917Z,100428.09
2022-08-26T10:22:34.906Z,100424.24
2022-08-26T10:25:09.844Z,100426.44
2022-08-26T10:27:49.756Z,100429.47
2022-08-26T10:30:22.260Z,100417.42
2022-08-26T10:32:56.554Z,100424.87
2022-08-26T10:35:26.588Z,100419.92
2022-08-26T10:38:03.482Z,100419.42
2022-08-26T10:40:45.361Z,100420.11
2022-08-26T10:43:22.023Z,100417.31
2022-08-26T10:45:53.142Z,100407.91
2022-08-26T10:48:35.617Z,100412.72
2022-08-26T10:51:05.824Z,100405.52
2022-08-26T10:53:45.833Z,100404.44
2022-08-26T10:56:27.995Z,100404.04
2022-08-26T10:59:06.764Z,100409.97
2022-08-26T11:01:51.056Z,100399.63
2022-08-26T11:04:37.178Z,100403.05
2022-08-26T11:07:31.765Z,100396.53
2022-08-26T11:10:03.507Z,100394.55
2022-08-26T11:12:56.347Z,100399.19
2022-08-26T11:15:42.441Z,100391.78
2022-08-26T11:18:12.788Z,100382.12
2022-08-26T11:20:44.347Z,100384.42
2022-08-26T11:23:50.424Z,100383.11
2022-08-26T11:26:35.485Z,100378.06
2022-08-26T11:29:13.508Z,100376.55
2022-08-26T11:31:57.032Z,100367.09
2022-08-26T11:34:54.822Z,100373.99
2022-08-26T11:37:32.279Z,100377.27
2022-08-26T11:40:04.283Z,100370.92
2022-08-26T11:42:40.382Z,100370.74
2022-08-26T11:45:22.541Z,100365.39
2022-08-26T11:47:52.366Z,100357.33
2022-08-26T11:50:25.518Z,100357.54
2022-08-26T11:53:01.012Z,100353.39
2022-08-26T11:55:30.858Z,100357.84
2022-08-26T11:58:04.656Z,100351.06
2022-08-26T12:00:37.972Z,100349.64
2022-08-26T12:03:23.001Z,100350.03
2022-08-26T12:05:54.002Z,100351.41
2022-08-26T12:08:27.943Z,100344.10
2022-08-26T12:11:06.442Z,100346.27
2022-08-26T12:13:38.496Z,100344.20
2022-08-26T12:16:08.513Z,100335.09
2022-08-26T12:18:38.681Z,100333.56
2022-08-26T12:21:15.991Z,100336.95
2022-08-26T12:23:48.603Z,100335.63
2022-08-26T12:26:26.752Z,100335.19
2022-08-26T12:28:59.190Z,100330.02
2022-08-26T12:31:31.490Z,100322.44
2022-08-26T12:34:03.639Z,100318.64
2022-08-26T12:36:36.823Z,100327.72
2022-08-26T12:39:11.015Z,100319.84
2022-08-26T12:41:49.900Z,100321.76
2022-08-26T12:44:37.768Z,100321.63
2022-08-26T12:47:17.016Z,100311.77
2022-08-26T12:50:01.936Z,100303.17
2022-08-26T12:52:32.697Z,100302.64
2022-08-26T12:55:04.884Z,100301.61
2022-08-26T12:57:35.824Z,100301.28
2022-08-26T13:00:28.283Z,100292.22
2022-08-26T13:02:58.259Z,100293.91
2022-08-26T13:05:33.522Z,100285.58
2022-08-26T13:08:24.307Z,100285.77
2022-08-26T13:11:04.157Z,100283.42
2022-08-26T13:13:33.296Z,100281.47
2022-08-26T13:16:02.607Z,100276.88
2022-08-26T13:18:31.236Z,100274.06
2022-08-26T13:20:59.791Z,100268.38
2022-08-26T13:23:28.819Z,100269.56
2022-08-26T13:25:58.271Z,100268.63
2022-08-26T13:28:26.977Z,100271.23
2022-08-26T13:30:55.679Z,100269.80
2022-08-26T13:33:24.190Z,100266.31
2022-08-26T13:35:52.740Z,100257.83
2022-08-26T13:38:29.015Z,100263.25
2022-08-26T13:41:02.989Z,100257.27
2022-08-26T13:43:32.039Z,100256.30
2022-08-26T13:46:01.406Z,100254.42
2022-08-26T13:48:31.099Z,100254.75
2022-08-26T13:50:59.577Z,100250.89
2022-08-26T13:53:29.916Z,100243.05
2022-08-26T13:55:59.715Z,100247.19
2022-08-26T13:58:29.161Z,100253.70
2022-08-26T14:00:58.616Z,100250.02
2022-08-26T14:03:27.531Z,100253.61
2022-08-26T14:05:56.180Z,100250.77
2022-08-26T14:08:24.765Z,100248.77
2022-08-26T14:10:53.374Z,100253.28
2022-08-26T14:13:22.203Z,100250.09
2022-08-26T14:15:52.675Z,100235.38
2022-08-26T14:18:25.737Z,100241.65
2022-08-26T14:20:56.804Z,100235.39
2022-08-26T14:23:25.709Z,100229.47
2022-08-26T14:25:54.813Z,100235.03
2022-08-26T14:28:23.427Z,100233.66
2022-08-26T14:30:55.842Z,100228.09
2022-08-26T14:33:28.186Z,100226.06
2022-08-26T14:36:17.355Z,100223.70
2022-08-26T14:38:47.050Z,100228.95
2022-08-26T14:41:17.089Z,100226.61
2022-08-26T14:43:49.056Z,100225.77
2022-08-26T14:46:18.301Z,100222.23
2022-08-26T14:48:46.991Z,100219.68
2022-08-26T14:51:15.562Z,100221.88
2022-08-26T14:54:02.908Z,100219.87
2022-08-26T14:56:33.005Z,100217.16
2022-08-26T14:59:01.600Z,100217.68
2022-08-26T15:01:31.670Z,100218.19
2022-08-26T15:04:00.915Z,100212.44
2022-08-26T15:06:31.369Z,100222.41
2022-08-26T15:09:00.079Z,100214.63
2022-08-26T15:11:28.963Z,100219.52
2022-08-26T15:13:57.572Z,100212.58
2022-08-26T15:16:28.576Z,100208.70
2022-08-26T15:18:57.809Z,100212.55
2022-08-26T15:21:28.040Z,100205.64
2022-08-26T15:24:00.454Z,100206.83
2022-08-26T15:26:30.628Z,100205.27
2022-08-26T15:29:03.085Z,100208.78
2022-08-26T15:31:35.573Z,100196.56
2022-08-26T15:34:07.686Z,100201.08
2022-08-26T15:36:37.382Z,100195.84
2022-08-26T15:39:07.674Z,100193.26
2022-08-26T15:41:36.969Z,100200.45
2022-08-26T15:44:07.159Z,100189.13
2022-08-26T15:46:36.526Z,100189.37
2022-08-26T15:49:08.059Z,100192.33
2022-08-26T15:51:46.270Z,100191.95
2022-08-26T15:54:17.153Z,100200.38
2022-08-26T15:56:48.625Z,100193.59
2022-08-26T15:59:18.722Z,100189.52
2022-08-26T16:01:47.829Z,100198.24
2022-08-26T16:04:17.122Z,100191.94
2022-08-26T16:06:49.595Z,100196.97
2022-08-26T16:09:18.383Z,100180.26
2022-08-26T16:11:48.214Z,100194.02
2022-08-26T16:14:16.837Z,100186.42
2022-08-26T16:16:46.545Z,100184.19
2022-08-26T16:19:15.283Z,100183.11
2022-08-26T16:21:44.487Z,100189.13
2022-08-26T16:24:13.515Z,100182.52
2022-08-26T16:26:44.846Z,100184.27
2022-08-26T16:29:15.145Z,100184.03
2022-08-26T16:31:43.869Z,100181.27
2022-08-26T16:34:12.514Z,100177.78
2022-08-26T16:36:41.485Z,100184.07
2022-08-26T16:39:10.450Z,100182.42
2022-08-26T16:41:39.147Z,100183.33
2022-08-26T16:44:08.199Z,100182.38
2022-08-26T16:46:39.249Z,100178.61
2022-08-26T16:49:07.957Z,100177.49
2022-08-26T16:51:38.025Z,100182.61
2022-08-26T16:54:08.216Z,100190.54
2022-08-26T16:56:37.533Z,100188.45
2022-08-26T16:59:10.146Z,100186.50
2022-08-26T17:01:38.833Z,100182.84
2022-08-26T17:04:07.792Z,100189.41
2022-08-26T17:06:37.435Z,100181.48
2022-08-26T17:09:06.067Z,100190.69
2022-08-26T17:11:35.167Z,100187.29
2022-08-26T17:14:03.850Z,100188.30
2022-08-26T17:16:32.983Z,100192.67
2022-08-26T17:19:02.270Z,100193.95
2022-08-26T17:21:33.406Z,100192.20
2022-08-26T17:24:02.707Z,100195.00
2022-08-26T17:26:31.472Z,100203.16
2022-08-26T17:29:00.154Z,100203.42
2022-08-26T17:31:28.775Z,100198.44
2022-08-26T17:33:57.378Z,100201.19
2022-08-26T17:36:28.139Z,100205.92
2022-08-26T17:38:58.267Z,100204.20
2022-08-26T17:41:27.606Z,100199.91
2022-08-26T17:43:56.898Z,100204.47
2022-08-26T17:46:25.890Z,100199.33
2022-08-26T17:48:54.623Z,100199.62
2022-08-26T17:51:24.131Z,100198.37
2022-08-26T17:53:53.127Z,100205.86
2022-08-26T17:56:25.097Z,100209.93
2022-08-26T17:58:57.196Z,100203.27
2022-08-26T18:01:31.327Z,100202.94
2022-08-26T18:04:01.028Z,100206.00
2022-08-26T18:06:30.381Z,100203.61
2022-08-26T18:08:59.601Z,100203.81
2022-08-26T18:11:29.065Z,100203.95
2022-08-26T18:13:57.667Z,100202.23
2022-08-26T18:16:27.531Z,100209.97
2022-08-26T18:18:56.064Z,100209.85
2022-08-26T18:21:27.005Z,100203.75
2022-08-26T18:23:56.346Z,100210.22
2022-08-26T18:26:28.060Z,100213.10
2022-08-26T18:28:57.057Z,100214.23
2022-08-26T18:31:26.562Z,100209.81
2022-08-26T18:33:55.287Z,100217.75
2022-08-26T18:36:25.907Z,100214.91
2022-08-26T18:38:55.288Z,100216.50
2022-08-26T18:41:27.206Z,100219.84
2022-08-26T18:43:56.864Z,100221.26
2022-08-26T18:46:27.493Z,100223.63
2022-08-26T18:48:57.047Z,100227.67
2022-08-26T18:51:29.209Z,100220.46
2022-08-26T18:53:59.089Z,100224.62
2022-08-26T18:56:28.596Z,100217.28
2022-08-26T18:58:58.454Z,100222.30
2022-08-26T19:01:28.789Z,100217.55
2022-08-26T19:03:59.521Z,100222.56
2022-08-26T19:06:32.525Z,100223.95
2022-08-26T19:09:02.181Z,100220.95
2022-08-26T19:11:31.529Z,100222.33
2022-08-26T19:14:01.811Z,100220.30
2022-08-26T19:16:31.050Z,100220.70
2022-08-26T19:19:00.804Z,100219.61
2022-08-26T19:21:32.668Z,100231.62
2022-08-26T19:24:04.231Z,100225.06
2022-08-26T19:26:33.010Z,100227.38
2022-08-26T19:29:02.064Z,100222.56
2022-08-26T19:31:30.820Z,100222.98
2022-08-26T19:33:59.633Z,100228.78
2022-08-26T19:36:28.670Z,100228.44
2022-08-26T19:38:57.813Z,100221.80
2022-08-26T19:41:36.998Z,100227.63
2022-08-26T19:44:12.601Z,100222.69
2022-08-26T19:46:41.806Z,100227.45
2022-08-26T19:49:10.323Z,100220.80
2022-08-26T19:51:38.748Z,100225.56
2022-08-26T19:54:07.368Z,100226.84
2022-08-26T19:56:36.131Z,100225.35
2022-08-26T19:59:05.204Z,100229.13
2022-08-26T20:01:33.788Z,100237.28
2022-08-26T20:04:02.447Z,100230.47
2022-08-26T20:06:33.379Z,100234.07
2022-08-26T20:09:01.844Z,100228.11
2022-08-26T20:11:30.605Z,100230.94
2022-08-26T20:13:59.189Z,100223.27
2022-08-26T20:16:27.706Z,100228.09
2022-08-26T20:19:14.662Z,100227.71
2022-08-26T20:21:43.641Z,100231.87
2022-08-26T20:24:16.983Z,100234.97
2022-08-26T20:26:46.733Z,100228.41
2022-08-26T20:29:17.275Z,100234.76
2022-08-26T20:31:46.859Z,100229.45
2022-08-26T20:34:17.919Z,100231.44
2022-08-26T20:36:49.036Z,100235.17
2022-08-26T20:39:20.417Z,100236.28
2022-08-26T20:41:50.146Z,100240.15
2022-08-26T20:44:19.192Z,100240.42
2022-08-26T20:46:48.282Z,100234.55
2022-08-26T20:49:18.260Z,100243.51
2022-08-26T20:51:51.205Z,100238.48
2022-08-26T20:54:25.000Z,100241.33
2022-08-26T20:56:58.093Z,100239.78
2022-08-26T20:59:26.840Z,100246.97
2022-08-26T21:01:55.700Z,100241.83
2022-08-26T21:04:26.940Z,100249.88
2022-08-26T21:06:55.867Z,100251.75
2022-08-26T21:09:29.003Z,100251.92
2022-08-26T21:11:59.513Z,100251.34
2022-08-26T21:14:31.670Z,100252.45
2022-08-26T21:17:00.785Z,100258.01
2022-08-26T21:19:29.790Z,100255.62
2022-08-26T21:21:58.838Z,100255.78
2022-08-26T21:24:27.603Z,100254.09
2022-08-26T21:26:56.338Z,100256.75
2022-08-26T21:29:28.153Z,100254.27
2022-08-26T21:31:57.298Z,100250.84
2022-08-26T21:34:26.341Z,100250.06
2022-08-26T21:36:55.180Z,100250.16
2022-08-26T21:39:23.980Z,100251.19
2022-08-26T21:41:52.709Z,100254.00
2022-08-26T21:44:21.600Z,100246.99
2022-08-26T21:46:50.419Z,100250.58
2022-08-26T21:49:19.069Z,100237.43
2022-08-26T21:54:56.967Z,100242.86
2022-08-26T21:57:25.583Z,100241.14
2022-08-26T21:59:54.730Z,100243.70
2022-08-26T22:02:24.010Z,100244.47
2022-08-26T22:04:52.601Z,100244.34
2022-08-26T22:07:21.143Z,100242.38
2022-08-26T22:09:50.903Z,100239.63
2022-08-26T22:12:19.473Z,100242.98
2022-08-26T22:14:48.852Z,100242.89
2022-08-26T22:17:17.471Z,100239.30
2022-08-26T22:19:46.806Z,100242.73
2022-08-26T22:22:15.789Z,100250.48
2022-08-26T22:24:44.819Z,100247.50
2022-08-26T22:27:14.065Z,100240.13
2022-08-26T22:29:42.951Z,100245.95
2022-08-26T22:32:11.524Z,100250.98
2022-08-26T22:34:41.627Z,100247.33
2022-08-26T22:37:10.353Z,100249.20
2022-08-26T22:39:39.202Z,100244.94
2022-08-26T22:42:07.832Z,100249.47
2022-08-26T22:44:36.981Z,100243.30
2022-08-26T22:47:06.135Z,100243.39
2022-08-26T22:49:34.627Z,100233.06
2022-08-26T22:52:04.070Z,100238.42
2022-08-26T22:54:32.547Z,100244.86
2022-08-26T22:57:01.352Z,100241.53
2022-08-26T22:59:29.867Z,100242.62
2022-08-26T23:01:58.552Z,100237.50
2022-08-26T23:04:27.052Z,100238.53
2022-08-26T23:06:55.558Z,100235.20
2022-08-26T23:09:24.051Z,100230.94
2022-08-26T23:11:55.399Z,100225.80
2022-08-26T23:14:24.700Z,100224.93
2022-08-26T23:16:53.636Z,100231.10
2022-08-26T23:19:23.102Z,100228.55
2022-08-26T23:21:51.831Z,100233.87
2022-08-26T23:24:20.587Z,100229.48
2022-08-26T23:26:49.200Z,100228.58
2022-08-26T23:29:17.891Z,100221.58
2022-08-26T23:31:46.455Z,100227.80
2022-08-26T23:34:33.852Z,100214.56
2022-08-26T23:37:04.525Z,100219.12
2022-08-26T23:39:36.484Z,100216.53
2022-08-26T23:42:07.084Z,100209.46
2022-08-26T23:44:35.768Z,100212.17
2022-08-26T23:47:04.788Z,100215.86
2022-08-26T23:49:34.702Z,100210.72
2022-08-26T23:52:24.158Z,100209.27
2022-08-26T23:54:52.707Z,100206.03
2022-08-26T23:57:23.131Z,100205.26
2022-08-26T23:59:52.674Z,100202.52
